sensor_id;sensor_type;location;lat;lon;timestamp;pressure;altitude;pressure_sealevel;temperature;humidity
54042;BME280;41156;51.508;5.406;2023-02-28T00:00:18;102972.94;;;-1.55;98.07
54042;BME280;41156;51.508;5.406;2023-02-28T00:03:18;102967.63;;;-1.55;97.58
54042;BME280;41156;51.508;5.406;2023-02-28T00:06:19;102968.47;;;-1.54;97.21
54042;BME280;41156;51.508;5.406;2023-02-28T00:09:20;102965.91;;;-1.56;97.88
54042;BME280;41156;51.508;5.406;2023-02-28T00:12:20;102969.47;;;-1.57;97.66
54042;BME280;41156;51.508;5.406;2023-02-28T00:15:20;102972.13;;;-1.57;97.52
54042;BME280;41156;51.508;5.406;2023-02-28T00:18:22;102972.13;;;-1.57;98.09
54042;BME280;41156;51.508;5.406;2023-02-28T00:21:23;102968.72;;;-1.59;98.65
54042;BME280;41156;51.508;5.406;2023-02-28T00:24:24;102975.06;;;-1.61;98.40
54042;BME280;41156;51.508;5.406;2023-02-28T00:27:24;102974.25;;;-1.63;98.09
54042;BME280;41156;51.508;5.406;2023-02-28T00:30:24;102967.41;;;-1.68;98.27
54042;BME280;41156;51.508;5.406;2023-02-28T00:33:25;102962.34;;;-1.72;98.62
54042;BME280;41156;51.508;5.406;2023-02-28T00:36:26;102971.25;;;-1.73;99.60
54042;BME280;41156;51.508;5.406;2023-02-28T00:39:26;102964.25;;;-1.74;99.51
54042;BME280;41156;51.508;5.406;2023-02-28T00:42:26;102962.59;;;-1.77;99.26
54042;BME280;41156;51.508;5.406;2023-02-28T00:45:27;102973.19;;;-1.77;98.81
54042;BME280;41156;51.508;5.406;2023-02-28T00:48:27;102960.81;;;-1.76;99.73
54042;BME280;41156;51.508;5.406;2023-02-28T00:51:28;102971.25;;;-1.73;99.71
54042;BME280;41156;51.508;5.406;2023-02-28T00:54:28;102965.00;;;-1.72;99.31
54042;BME280;41156;51.508;5.406;2023-02-28T00:57:29;102970.16;;;-1.69;99.78
54042;BME280;41156;51.508;5.406;2023-02-28T01:00:29;102966.38;;;-1.65;99.80
54042;BME280;41156;51.508;5.406;2023-02-28T01:03:29;102968.09;;;-1.64;99.23
54042;BME280;41156;51.508;5.406;2023-02-28T01:06:30;102967.19;;;-1.63;99.75
54042;BME280;41156;51.508;5.406;2023-02-28T01:09:30;102968.03;;;-1.62;98.46
54042;BME280;41156;51.508;5.406;2023-02-28T01:12:30;102975.06;;;-1.61;99.61
54042;BME280;41156;51.508;5.406;2023-02-28T01:15:31;102982.94;;;-1.60;99.56
54042;BME280;41156;51.508;5.406;2023-02-28T01:18:32;102978.38;;;-1.58;99.67
54042;BME280;41156;51.508;5.406;2023-02-28T01:21:32;102981.88;;;-1.57;100.00
54042;BME280;41156;51.508;5.406;2023-02-28T01:24:33;102982.81;;;-1.58;99.09
54042;BME280;41156;51.508;5.406;2023-02-28T01:27:33;102983.63;;;-1.56;99.71
54042;BME280;41156;51.508;5.406;2023-02-28T01:30:34;102985.31;;;-1.55;100.00
54042;BME280;41156;51.508;5.406;2023-02-28T01:33:34;102985.31;;;-1.55;99.78
54042;BME280;41156;51.508;5.406;2023-02-28T01:36:35;102982.81;;;-1.58;99.81
54042;BME280;41156;51.508;5.406;2023-02-28T01:39:36;102983.84;;;-1.61;99.55
54042;BME280;41156;51.508;5.406;2023-02-28T01:42:36;102984.94;;;-1.65;99.62
54042;BME280;41156;51.508;5.406;2023-02-28T01:45:37;102985.91;;;-1.66;100.00
54042;BME280;41156;51.508;5.406;2023-02-28T01:51:53;102971.69;;;-1.65;100.00
54042;BME280;41156;51.508;5.406;2023-02-28T01:54:57;102968.19;;;-1.65;100.00
54042;BME280;41156;51.508;5.406;2023-02-28T01:58:01;102962.81;;;-1.64;100.00
54042;BME280;41156;51.508;5.406;2023-02-28T02:01:03;102956.56;;;-1.63;100.00
54042;BME280;41156;51.508;5.406;2023-02-28T02:04:03;102957.50;;;-1.64;100.00
54042;BME280;41156;51.508;5.406;2023-02-28T02:07:04;102959.31;;;-1.64;100.00
54042;BME280;41156;51.508;5.406;2023-02-28T02:13:25;102955.38;;;-1.73;100.00
54042;BME280;41156;51.508;5.406;2023-02-28T02:23:47;102940.63;;;-1.79;100.00
54042;BME280;41156;51.508;5.406;2023-02-28T02:34:20;102938.94;;;-1.64;100.00
54042;BME280;41156;51.508;5.406;2023-02-28T02:37:00;102936.13;;;-1.61;100.00
54042;BME280;41156;51.508;5.406;2023-02-28T02:40:16;102942.34;;;-1.62;100.00
54042;BME280;41156;51.508;5.406;2023-02-28T02:43:53;102947.66;;;-1.62;100.00
54042;BME280;41156;51.508;5.406;2023-02-28T02:46:55;102951.09;;;-1.60;100.00
54042;BME280;41156;51.508;5.406;2023-02-28T02:50:02;102944.09;;;-1.61;100.00
54042;BME280;41156;51.508;5.406;2023-02-28T02:53:06;102950.16;;;-1.59;100.00
54042;BME280;41156;51.508;5.406;2023-02-28T02:56:08;102952.56;;;-1.54;100.00
54042;BME280;41156;51.508;5.406;2023-02-28T02:59:11;102955.81;;;-1.49;100.00
54042;BME280;41156;51.508;5.406;2023-02-28T03:02:14;102941.44;;;-1.45;100.00
54042;BME280;41156;51.508;5.406;2023-02-28T03:05:41;102945.47;;;-1.38;100.00
54042;BME280;41156;51.508;5.406;2023-02-28T03:08:42;102946.16;;;-1.34;100.00
54042;BME280;41156;51.508;5.406;2023-02-28T03:11:42;102936.38;;;-1.34;100.00
54042;BME280;41156;51.508;5.406;2023-02-28T03:18:01;102942.75;;;-1.36;100.00
54042;BME280;41156;51.508;5.406;2023-02-28T03:28:13;102934.00;;;-1.22;100.00
54042;BME280;41156;51.508;5.406;2023-02-28T03:31:30;102931.94;;;-1.17;100.00
54042;BME280;41156;51.508;5.406;2023-02-28T03:34:35;102942.31;;;-1.13;100.00
54042;BME280;41156;51.508;5.406;2023-02-28T03:37:38;102943.81;;;-1.08;100.00
54042;BME280;41156;51.508;5.406;2023-02-28T03:40:46;102936.66;;;-1.06;100.00
54042;BME280;41156;51.508;5.406;2023-02-28T03:43:54;102937.06;;;-0.98;100.00
54042;BME280;41156;51.508;5.406;2023-02-28T03:50:19;102943.75;;;-0.91;100.00
54042;BME280;41156;51.508;5.406;2023-02-28T03:53:28;102947.75;;;-0.84;100.00
54042;BME280;41156;51.508;5.406;2023-02-28T03:56:42;102943.97;;;-0.80;100.00
54042;BME280;41156;51.508;5.406;2023-02-28T03:59:49;102955.94;;;-0.72;100.00
54042;BME280;41156;51.508;5.406;2023-02-28T04:02:54;102942.50;;;-0.69;100.00
54042;BME280;41156;51.508;5.406;2023-02-28T04:05:55;102945.72;;;-0.64;100.00
54042;BME280;41156;51.508;5.406;2023-02-28T04:08:57;102947.25;;;-0.60;100.00
54042;BME280;41156;51.508;5.406;2023-02-28T04:11:57;102942.63;;;-0.57;100.00
54042;BME280;41156;51.508;5.406;2023-02-28T04:14:58;102944.16;;;-0.52;100.00
54042;BME280;41156;51.508;5.406;2023-02-28T04:17:58;102936.09;;;-0.51;100.00
54042;BME280;41156;51.508;5.406;2023-02-28T04:21:00;102940.28;;;-0.47;100.00
54042;BME280;41156;51.508;5.406;2023-02-28T04:24:00;102951.59;;;-0.43;100.00
54042;BME280;41156;51.508;5.406;2023-02-28T04:27:01;102949.69;;;-0.41;100.00
54042;BME280;41156;51.508;5.406;2023-02-28T04:30:01;102955.75;;;-0.39;100.00
54042;BME280;41156;51.508;5.406;2023-02-28T04:33:02;102953.78;;;-0.35;100.00
54042;BME280;41156;51.508;5.406;2023-02-28T04:36:04;102959.84;;;-0.33;100.00
54042;BME280;41156;51.508;5.406;2023-02-28T04:39:05;102957.09;;;-0.32;100.00
54042;BME280;41156;51.508;5.406;2023-02-28T04:42:05;102963.13;;;-0.28;100.00
54042;BME280;41156;51.508;5.406;2023-02-28T04:45:06;102961.22;;;-0.26;100.00
54042;BME280;41156;51.508;5.406;2023-02-28T04:48:10;102960.16;;;-0.24;100.00
54042;BME280;41156;51.508;5.406;2023-02-28T04:51:13;102965.38;;;-0.22;100.00
54042;BME280;41156;51.508;5.406;2023-02-28T04:54:13;102960.81;;;-0.20;100.00
54042;BME280;41156;51.508;5.406;2023-02-28T04:57:15;102960.81;;;-0.20;100.00
54042;BME280;41156;51.508;5.406;2023-02-28T05:00:16;102968.38;;;-0.43;100.00
54042;BME280;41156;51.508;5.406;2023-02-28T05:03:16;102973.09;;;-0.48;100.00
54042;BME280;41156;51.508;5.406;2023-02-28T05:06:17;102960.34;;;-0.57;100.00
54042;BME280;41156;51.508;5.406;2023-02-28T05:09:17;102961.31;;;-0.58;100.00
54042;BME280;41156;51.508;5.406;2023-02-28T05:12:18;102956.94;;;-0.59;100.00
54042;BME280;41156;51.508;5.406;2023-02-28T05:15:18;102964.91;;;-0.59;100.00
54042;BME280;41156;51.508;5.406;2023-02-28T05:18:18;102973.63;;;-0.57;100.00
54042;BME280;41156;51.508;5.406;2023-02-28T05:21:37;102968.31;;;-0.57;100.00
54042;BME280;41156;51.508;5.406;2023-02-28T05:24:38;102970.03;;;-0.56;100.00
54042;BME280;41156;51.508;5.406;2023-02-28T05:27:38;102970.88;;;-0.56;100.00
54042;BME280;41156;51.508;5.406;2023-02-28T05:30:39;102969.06;;;-0.55;100.00
54042;BME280;41156;51.508;5.406;2023-02-28T05:33:39;102971.56;;;-0.52;100.00
54042;BME280;41156;51.508;5.406;2023-02-28T05:36:39;102972.44;;;-0.51;100.00
54042;BME280;41156;51.508;5.406;2023-02-28T05:39:40;102974.13;;;-0.50;100.00
54042;BME280;41156;51.508;5.406;2023-02-28T05:42:41;102977.66;;;-0.50;100.00
54042;BME280;41156;51.508;5.406;2023-02-28T05:45:41;102976.69;;;-0.49;100.00
54042;BME280;41156;51.508;5.406;2023-02-28T05:48:42;102968.66;;;-0.47;100.00
54042;BME280;41156;51.508;5.406;2023-02-28T05:51:43;102976.69;;;-0.49;100.00
54042;BME280;41156;51.508;5.406;2023-02-28T05:54:43;102979.53;;;-0.52;100.00
54042;BME280;41156;51.508;5.406;2023-02-28T05:57:44;102979.63;;;-0.53;100.00
54042;BME280;41156;51.508;5.406;2023-02-28T06:00:44;102970.88;;;-0.56;100.00
54042;BME280;41156;51.508;5.406;2023-02-28T06:03:45;102981.59;;;-0.57;100.00
54042;BME280;41156;51.508;5.406;2023-02-28T06:06:49;102978.94;;;-0.57;100.00
54042;BME280;41156;51.508;5.406;2023-02-28T06:09:49;102986.06;;;-0.58;100.00
54042;BME280;41156;51.508;5.406;2023-02-28T06:12:50;102982.56;;;-0.58;100.00
54042;BME280;41156;51.508;5.406;2023-02-28T06:15:50;102984.34;;;-0.59;100.00
54042;BME280;41156;51.508;5.406;2023-02-28T06:18:51;102991.47;;;-0.59;100.00
54042;BME280;41156;51.508;5.406;2023-02-28T06:21:53;102987.09;;;-0.60;100.00
54042;BME280;41156;51.508;5.406;2023-02-28T06:24:54;103002.09;;;-0.59;100.00
54042;BME280;41156;51.508;5.406;2023-02-28T06:27:57;102994.13;;;-0.59;100.00
54042;BME280;41156;51.508;5.406;2023-02-28T06:30:57;102993.94;;;-0.56;100.00
54042;BME280;41156;51.508;5.406;2023-02-28T06:33:57;102999.16;;;-0.54;100.00
54042;BME280;41156;51.508;5.406;2023-02-28T06:36:58;103000.00;;;-0.54;100.00
54042;BME280;41156;51.508;5.406;2023-02-28T06:40:02;103004.31;;;-0.51;100.00
54042;BME280;41156;51.508;5.406;2023-02-28T06:43:03;103010.38;;;-0.49;100.00
54042;BME280;41156;51.508;5.406;2023-02-28T06:46:05;103003.25;;;-0.49;100.00
54042;BME280;41156;51.508;5.406;2023-02-28T06:49:06;103000.69;;;-0.50;100.00
54042;BME280;41156;51.508;5.406;2023-02-28T06:52:08;103009.72;;;-0.53;100.00
54042;BME280;41156;51.508;5.406;2023-02-28T06:55:09;103003.44;;;-0.52;100.00
54042;BME280;41156;51.508;5.406;2023-02-28T06:58:10;102994.72;;;-0.54;100.00
54042;BME280;41156;51.508;5.406;2023-02-28T07:01:19;102999.25;;;-0.56;100.00
54042;BME280;41156;51.508;5.406;2023-02-28T07:04:19;103015.44;;;-0.61;100.00
54042;BME280;41156;51.508;5.406;2023-02-28T07:07:19;103018.19;;;-0.62;100.00
54042;BME280;41156;51.508;5.406;2023-02-28T07:10:20;103028.06;;;-0.64;100.00
54042;BME280;41156;51.508;5.406;2023-02-28T07:13:21;103023.66;;;-0.65;100.00
54042;BME280;41156;51.508;5.406;2023-02-28T07:16:22;103018.38;;;-0.65;100.00
54042;BME280;41156;51.508;5.406;2023-02-28T07:19:24;103016.50;;;-0.63;100.00
54042;BME280;41156;51.508;5.406;2023-02-28T07:22:24;103016.28;;;-0.60;100.00
54042;BME280;41156;51.508;5.406;2023-02-28T07:25:26;103028.47;;;-0.56;100.00
54042;BME280;41156;51.508;5.406;2023-02-28T07:28:27;103037.97;;;-0.52;100.00
54042;BME280;41156;51.508;5.406;2023-02-28T07:31:27;103026.16;;;-0.46;100.00
54042;BME280;41156;51.508;5.406;2023-02-28T07:34:28;103035.53;;;-0.41;100.00
54042;BME280;41156;51.508;5.406;2023-02-28T07:37:28;103036.63;;;-0.29;100.00
54042;BME280;41156;51.508;5.406;2023-02-28T07:40:31;103028.88;;;-0.17;100.00
54042;BME280;41156;51.508;5.406;2023-02-28T07:43:32;103034.53;;;-0.08;100.00
54042;BME280;41156;51.508;5.406;2023-02-28T07:46:32;103039.97;;;0.05;100.00
54042;BME280;41156;51.508;5.406;2023-02-28T07:49:38;103036.38;;;0.21;99.61
54042;BME280;41156;51.508;5.406;2023-02-28T07:52:39;103041.06;;;0.46;100.00
54042;BME280;41156;51.508;5.406;2023-02-28T07:55:40;103035.16;;;0.69;97.72
54042;BME280;41156;51.508;5.406;2023-02-28T07:58:40;103035.50;;;0.92;97.78
54042;BME280;41156;51.508;5.406;2023-02-28T08:01:41;103038.03;;;1.08;92.47
54042;BME280;41156;51.508;5.406;2023-02-28T08:04:42;103046.09;;;1.21;94.19
54042;BME280;41156;51.508;5.406;2023-02-28T08:07:43;103045.91;;;1.24;89.76
54042;BME280;41156;51.508;5.406;2023-02-28T08:10:43;103044.53;;;1.31;89.63
54042;BME280;41156;51.508;5.406;2023-02-28T08:13:44;103052.25;;;1.36;85.53
54042;BME280;41156;51.508;5.406;2023-02-28T08:16:44;103054.91;;;1.36;84.81
54042;BME280;41156;51.508;5.406;2023-02-28T08:19:45;103043.50;;;1.34;85.70
54042;BME280;41156;51.508;5.406;2023-02-28T08:22:46;103038.47;;;1.29;82.12
54042;BME280;41156;51.508;5.406;2023-02-28T08:25:53;103050.25;;;1.25;84.36
54042;BME280;41156;51.508;5.406;2023-02-28T08:28:54;103036.94;;;1.25;84.61
54042;BME280;41156;51.508;5.406;2023-02-28T08:31:54;103045.91;;;1.24;78.19
54042;BME280;41156;51.508;5.406;2023-02-28T08:34:55;103037.72;;;1.27;82.17
54042;BME280;41156;51.508;5.406;2023-02-28T08:37:55;103044.25;;;1.36;84.70
54042;BME280;41156;51.508;5.406;2023-02-28T08:41:00;103039.72;;;1.51;81.51
54042;BME280;41156;51.508;5.406;2023-02-28T08:44:01;103045.94;;;1.64;84.72
54042;BME280;41156;51.508;5.406;2023-02-28T08:47:02;103038.84;;;1.77;80.96
54042;BME280;41156;51.508;5.406;2023-02-28T08:50:03;103032.47;;;1.93;82.33
54042;BME280;41156;51.508;5.406;2023-02-28T08:53:03;103033.34;;;2.06;78.84
54042;BME280;41156;51.508;5.406;2023-02-28T08:56:08;103037.19;;;2.15;72.21
54042;BME280;41156;51.508;5.406;2023-02-28T08:59:09;103035.72;;;2.24;73.48
54042;BME280;41156;51.508;5.406;2023-02-28T09:02:12;103048.75;;;2.28;74.20
54042;BME280;41156;51.508;5.406;2023-02-28T09:05:13;103046.38;;;2.36;75.38
54042;BME280;41156;51.508;5.406;2023-02-28T09:08:13;103040.72;;;2.41;69.66
54042;BME280;41156;51.508;5.406;2023-02-28T09:11:13;103046.47;;;2.48;69.56
54042;BME280;41156;51.508;5.406;2023-02-28T09:14:14;103044.03;;;2.57;74.72
54042;BME280;41156;51.508;5.406;2023-02-28T09:17:14;103044.00;;;2.70;76.20
54042;BME280;41156;51.508;5.406;2023-02-28T09:20:15;103042.91;;;2.86;69.81
54042;BME280;41156;51.508;5.406;2023-02-28T09:23:16;103042.78;;;3.00;70.21
54042;BME280;41156;51.508;5.406;2023-02-28T09:26:22;103045.88;;;3.07;65.32
54042;BME280;41156;51.508;5.406;2023-02-28T09:29:23;103036.31;;;3.15;69.39
54042;BME280;41156;51.508;5.406;2023-02-28T09:32:23;103035.38;;;3.17;63.61
54042;BME280;41156;51.508;5.406;2023-02-28T09:35:24;103043.38;;;3.17;59.36
54042;BME280;41156;51.508;5.406;2023-02-28T09:38:25;103044.13;;;3.19;57.93
54042;BME280;41156;51.508;5.406;2023-02-28T09:41:26;103049.63;;;3.28;62.21
54042;BME280;41156;51.508;5.406;2023-02-28T09:44:36;103039.97;;;3.39;60.29
54042;BME280;41156;51.508;5.406;2023-02-28T09:47:41;103042.94;;;3.47;65.06
54042;BME280;41156;51.508;5.406;2023-02-28T09:50:46;103041.72;;;3.51;61.91
54042;BME280;41156;51.508;5.406;2023-02-28T09:53:48;103026.06;;;3.58;63.85
54042;BME280;41156;51.508;5.406;2023-02-28T09:56:59;103038.44;;;3.72;61.58
54042;BME280;41156;51.508;5.406;2023-02-28T10:03:25;103038.94;;;3.77;50.23
54042;BME280;41156;51.508;5.406;2023-02-28T10:06:33;103036.25;;;3.77;56.62
54042;BME280;41156;51.508;5.406;2023-02-28T10:09:37;103032.47;;;3.79;52.94
54042;BME280;41156;51.508;5.406;2023-02-28T10:12:40;103029.34;;;3.85;52.08
54042;BME280;41156;51.508;5.406;2023-02-28T10:15:45;103022.78;;;3.89;53.87
54042;BME280;41156;51.508;5.406;2023-02-28T10:18:52;103039.47;;;4.04;55.72
54042;BME280;41156;51.508;5.406;2023-02-28T10:22:05;103023.31;;;4.06;50.02
54042;BME280;41156;51.508;5.406;2023-02-28T10:25:21;103029.78;;;4.03;56.27
54042;BME280;41156;51.508;5.406;2023-02-28T10:28:21;103013.72;;;4.03;54.83
54042;BME280;41156;51.508;5.406;2023-02-28T10:31:22;103016.53;;;4.13;54.01
54042;BME280;41156;51.508;5.406;2023-02-28T10:34:24;103013.25;;;4.21;50.53
54042;BME280;41156;51.508;5.406;2023-02-28T10:37:24;103004.41;;;4.43;55.33
54042;BME280;41156;51.508;5.406;2023-02-28T10:40:27;103009.97;;;4.62;55.92
54042;BME280;41156;51.508;5.406;2023-02-28T10:43:27;103009.38;;;4.59;54.72
54042;BME280;41156;51.508;5.406;2023-02-28T10:46:29;103008.91;;;4.54;52.78
54042;BME280;41156;51.508;5.406;2023-02-28T10:49:33;103018.63;;;4.55;53.60
54042;BME280;41156;51.508;5.406;2023-02-28T10:52:39;103014.00;;;4.57;52.14
54042;BME280;41156;51.508;5.406;2023-02-28T10:55:39;103013.38;;;4.64;52.31
54042;BME280;41156;51.508;5.406;2023-02-28T10:58:58;103002.66;;;4.64;49.39
54042;BME280;41156;51.508;5.406;2023-02-28T11:01:59;102996.47;;;4.75;53.61
54042;BME280;41156;51.508;5.406;2023-02-28T11:05:00;103005.47;;;4.74;50.54
54042;BME280;41156;51.508;5.406;2023-02-28T11:08:14;103005.47;;;4.74;50.14
54042;BME280;41156;51.508;5.406;2023-02-28T11:11:15;102994.13;;;4.82;51.81
54042;BME280;41156;51.508;5.406;2023-02-28T11:14:27;102984.25;;;4.94;52.00
54042;BME280;41156;51.508;5.406;2023-02-28T11:17:32;102976.78;;;5.09;51.45
54042;BME280;41156;51.508;5.406;2023-02-28T11:20:33;102985.75;;;5.30;54.62
54042;BME280;41156;51.508;5.406;2023-02-28T11:23:35;102984.13;;;5.39;54.47
54042;BME280;41156;51.508;5.406;2023-02-28T11:26:46;102985.03;;;5.49;49.34
54042;BME280;41156;51.508;5.406;2023-02-28T11:29:48;102980.00;;;5.56;54.69
54042;BME280;41156;51.508;5.406;2023-02-28T11:32:49;102977.53;;;5.64;54.84
54042;BME280;41156;51.508;5.406;2023-02-28T11:35:50;102970.00;;;5.79;51.51
54042;BME280;41156;51.508;5.406;2023-02-28T11:38:54;102976.16;;;5.91;51.81
54042;BME280;41156;51.508;5.406;2023-02-28T11:42:39;102986.50;;;5.96;50.56
54042;BME280;41156;51.508;5.406;2023-02-28T11:52:01;102962.22;;;6.18;52.46
54042;BME280;41156;51.508;5.406;2023-02-28T11:55:14;102956.63;;;6.31;52.13
54042;BME280;41156;51.508;5.406;2023-02-28T12:11:40;102942.16;;;6.53;49.50
54042;BME280;41156;51.508;5.406;2023-02-28T12:22:12;102933.56;;;6.69;50.87
54042;BME280;41156;51.508;5.406;2023-02-28T12:25:37;102923.56;;;6.71;47.16
54042;BME280;41156;51.508;5.406;2023-02-28T12:28:46;102935.13;;;6.62;49.12
54042;BME280;41156;51.508;5.406;2023-02-28T12:44:47;102922.72;;;6.90;45.81
54042;BME280;41156;51.508;5.406;2023-02-28T12:48:00;102922.31;;;6.95;46.27
54042;BME280;41156;51.508;5.406;2023-02-28T12:51:01;102919.19;;;6.99;48.97
54042;BME280;41156;51.508;5.406;2023-02-28T12:54:21;102913.81;;;6.90;45.69
54042;BME280;41156;51.508;5.406;2023-02-28T12:57:38;102919.75;;;6.83;46.68
54042;BME280;41156;51.508;5.406;2023-02-28T13:04:40;102904.22;;;7.07;44.85
54042;BME280;41156;51.508;5.406;2023-02-28T13:08:10;102901.53;;;7.07;47.53
54042;BME280;41156;51.508;5.406;2023-02-28T13:11:26;102889.47;;;7.20;48.25
54042;BME280;41156;51.508;5.406;2023-02-28T13:14:36;102894.56;;;7.14;47.72
54042;BME280;41156;51.508;5.406;2023-02-28T13:17:39;102888.06;;;7.16;49.17
54042;BME280;41156;51.508;5.406;2023-02-28T13:20:47;102883.94;;;7.32;49.99
54042;BME280;41156;51.508;5.406;2023-02-28T13:36:50;102874.06;;;7.13;46.72
54042;BME280;41156;51.508;5.406;2023-02-28T13:40:33;102868.84;;;7.01;46.15
54042;BME280;41156;51.508;5.406;2023-02-28T13:44:18;102875.03;;;6.92;45.24
54042;BME280;41156;51.508;5.406;2023-02-28T13:47:21;102878.28;;;6.86;46.54
54042;BME280;41156;51.508;5.406;2023-02-28T13:53:45;102862.31;;;6.75;46.01
54042;BME280;41156;51.508;5.406;2023-02-28T14:09:28;102850.94;;;6.42;47.27
54042;BME280;41156;51.508;5.406;2023-02-28T14:16:05;102846.81;;;6.18;48.70
54042;BME280;41156;51.508;5.406;2023-02-28T14:25:41;102854.91;;;5.97;49.61
54042;BME280;41156;51.508;5.406;2023-02-28T14:32:05;102847.19;;;5.83;46.38
54042;BME280;41156;51.508;5.406;2023-02-28T14:38:54;102837.44;;;5.82;47.29
54042;BME280;41156;51.508;5.406;2023-02-28T14:41:56;102849.00;;;5.82;50.04
54042;BME280;41156;51.508;5.406;2023-02-28T14:45:03;102839.13;;;5.83;49.23
54042;BME280;41156;51.508;5.406;2023-02-28T14:48:04;102832.38;;;5.88;49.08
54042;BME280;41156;51.508;5.406;2023-02-28T14:51:09;102829.84;;;5.87;49.45
54042;BME280;41156;51.508;5.406;2023-02-28T14:54:14;102844.66;;;5.81;48.42
54042;BME280;41156;51.508;5.406;2023-02-28T14:57:29;102837.25;;;5.73;49.96
54042;BME280;41156;51.508;5.406;2023-02-28T15:00:32;102835.41;;;5.74;50.38
54042;BME280;41156;51.508;5.406;2023-02-28T15:03:35;102824.25;;;5.69;51.08
54042;BME280;41156;51.508;5.406;2023-02-28T15:06:36;102831.72;;;5.65;51.55
54042;BME280;41156;51.508;5.406;2023-02-28T15:09:36;102842.97;;;5.59;50.87
54042;BME280;41156;51.508;5.406;2023-02-28T15:12:39;102830.13;;;5.53;50.45
54042;BME280;41156;51.508;5.406;2023-02-28T15:15:50;102830.94;;;5.53;51.57
54042;BME280;41156;51.508;5.406;2023-02-28T15:18:58;102826.81;;;5.49;48.86
54042;BME280;41156;51.508;5.406;2023-02-28T15:22:04;102845.59;;;5.49;50.33
54042;BME280;41156;51.508;5.406;2023-02-28T15:25:07;102850.25;;;5.47;49.70
54042;BME280;41156;51.508;5.406;2023-02-28T15:28:16;102837.97;;;5.75;49.58
54042;BME280;41156;51.508;5.406;2023-02-28T15:31:40;102832.09;;;5.82;50.33
54042;BME280;41156;51.508;5.406;2023-02-28T15:34:43;102836.31;;;5.84;50.89
54042;BME280;41156;51.508;5.406;2023-02-28T15:37:58;102840.97;;;5.82;50.05
54042;BME280;41156;51.508;5.406;2023-02-28T15:41:00;102842.25;;;5.78;51.13
54042;BME280;41156;51.508;5.406;2023-02-28T15:44:15;102849.09;;;5.71;49.58
54042;BME280;41156;51.508;5.406;2023-02-28T15:47:19;102843.84;;;5.60;50.68
54042;BME280;41156;51.508;5.406;2023-02-28T15:50:20;102844.16;;;5.45;49.43
54042;BME280;41156;51.508;5.406;2023-02-28T15:53:28;102839.72;;;5.34;50.78
54042;BME280;41156;51.508;5.406;2023-02-28T15:56:32;102843.31;;;5.24;51.65
54042;BME280;41156;51.508;5.406;2023-02-28T15:59:35;102835.09;;;5.15;52.02
54042;BME280;41156;51.508;5.406;2023-02-28T16:02:37;102837.69;;;5.06;51.58
54042;BME280;41156;51.508;5.406;2023-02-28T16:05:38;102846.09;;;5.01;51.73
54042;BME280;41156;51.508;5.406;2023-02-28T16:08:38;102838.47;;;4.96;52.54
54042;BME280;41156;51.508;5.406;2023-02-28T16:11:45;102834.59;;;4.89;52.33
54042;BME280;41156;51.508;5.406;2023-02-28T16:14:51;102833.16;;;4.85;51.42
54042;BME280;41156;51.508;5.406;2023-02-28T16:17:53;102838.19;;;4.78;52.69
54042;BME280;41156;51.508;5.406;2023-02-28T16:20:53;102838.81;;;4.71;51.61
54042;BME280;41156;51.508;5.406;2023-02-28T16:23:54;102836.63;;;4.64;52.29
54042;BME280;41156;51.508;5.406;2023-02-28T16:26:55;102839.72;;;4.60;52.77
54042;BME280;41156;51.508;5.406;2023-02-28T16:29:57;102842.16;;;4.52;53.60
54042;BME280;41156;51.508;5.406;2023-02-28T16:32:58;102843.91;;;4.41;53.56
54042;BME280;41156;51.508;5.406;2023-02-28T16:35:59;102840.13;;;4.33;54.05
54042;BME280;41156;51.508;5.406;2023-02-28T16:38:59;102843.19;;;4.28;54.24
54042;BME280;41156;51.508;5.406;2023-02-28T16:42:01;102841.13;;;4.20;54.79
54042;BME280;41156;51.508;5.406;2023-02-28T16:45:02;102848.81;;;4.14;54.83
54042;BME280;41156;51.508;5.406;2023-02-28T16:48:02;102847.22;;;4.11;54.94
54042;BME280;41156;51.508;5.406;2023-02-28T16:51:02;102856.59;;;4.05;55.27
54042;BME280;41156;51.508;5.406;2023-02-28T16:54:04;102856.09;;;4.00;55.71
54042;BME280;41156;51.508;5.406;2023-02-28T16:57:05;102860.38;;;3.92;56.04
54042;BME280;41156;51.508;5.406;2023-02-28T17:00:07;102864.72;;;3.93;56.04
54042;BME280;41156;51.508;5.406;2023-02-28T17:03:27;102864.13;;;3.89;55.73
54042;BME280;41156;51.508;5.406;2023-02-28T17:06:29;102875.06;;;3.86;56.40
54042;BME280;41156;51.508;5.406;2023-02-28T17:09:30;102870.22;;;3.80;56.03
54042;BME280;41156;51.508;5.406;2023-02-28T17:12:30;102875.03;;;3.75;56.41
54042;BME280;41156;51.508;5.406;2023-02-28T17:15:31;102874.56;;;3.69;56.64
54042;BME280;41156;51.508;5.406;2023-02-28T17:18:31;102870.66;;;3.62;56.90
54042;BME280;41156;51.508;5.406;2023-02-28T17:21:33;102883.78;;;3.54;57.02
54042;BME280;41156;51.508;5.406;2023-02-28T17:24:34;102894.19;;;3.46;57.42
54042;BME280;41156;51.508;5.406;2023-02-28T17:27:34;102891.88;;;3.41;57.58
54042;BME280;41156;51.508;5.406;2023-02-28T17:30:35;102903.16;;;3.33;57.85
54042;BME280;41156;51.508;5.406;2023-02-28T17:33:35;102909.94;;;3.26;58.16
54042;BME280;41156;51.508;5.406;2023-02-28T17:36:36;102902.50;;;3.19;58.86
54042;BME280;41156;51.508;5.406;2023-02-28T17:39:36;102912.06;;;3.10;58.99
54042;BME280;41156;51.508;5.406;2023-02-28T17:42:37;102919.69;;;3.03;59.61
54042;BME280;41156;51.508;5.406;2023-02-28T17:45:37;102925.59;;;2.95;60.29
54042;BME280;41156;51.508;5.406;2023-02-28T17:48:38;102918.13;;;2.88;60.12
54042;BME280;41156;51.508;5.406;2023-02-28T17:51:38;102922.22;;;2.81;60.10
54042;BME280;41156;51.508;5.406;2023-02-28T17:54:38;102920.00;;;2.74;61.20
54042;BME280;41156;51.508;5.406;2023-02-28T17:57:39;102924.09;;;2.67;60.92
54042;BME280;41156;51.508;5.406;2023-02-28T18:00:41;102927.31;;;2.59;61.62
54042;BME280;41156;51.508;5.406;2023-02-28T18:03:42;102935.00;;;2.51;61.22
54042;BME280;41156;51.508;5.406;2023-02-28T18:06:45;102933.44;;;2.49;63.03
54042;BME280;41156;51.508;5.406;2023-02-28T18:09:49;102936.44;;;2.44;62.28